Time;durP1;ratioP1;P1;durP2;ratioP2;P2;SDS_P1;SDS_P2;PMS_P1;PMS_P2;Temp;Humidity;BMP_temperature;BMP_pressure;BME280_temperature;BME280_humidity;BME280_pressure;Samples;Min_cycle;Max_cycle;Signal;HPM_P1;HPM_P2
2023/10/18 00:01:57;;;;;;;8.13;5.60;;;;;;;;;;5034020;28;20444;-82
2023/10/18 00:04:23;;;;;;;6.33;5.73;;;;;;;;;;5032818;28;20529;-82
2023/10/18 00:06:54;;;;;;;7.77;6.13;;;;;;;;;;5034021;28;20440;-82
2023/10/18 00:09:45;;;;;;;6.63;6.00;;;;;;;;;;5032204;28;20472;-82
2023/10/18 00:12:10;;;;;;;6.00;5.30;;;;;;;;;;5033407;28;20460;-82
2023/10/18 00:14:39;;;;;;;6.23;5.40;;;;;;;;;;5032785;28;20499;-83
2023/10/18 00:17:05;;;;;;;6.93;6.33;;;;;;;;;;5033342;28;20589;-81
2023/10/18 00:19:32;;;;;;;5.90;5.10;;;;;;;;;;5032848;28;20504;-83
2023/10/18 00:21:59;;;;;;;8.90;5.40;;;;;;;;;;5033564;28;20433;-83
2023/10/18 00:24:27;;;;;;;7.37;5.50;;;;;;;;;;5032805;28;20481;-80
2023/10/18 00:26:54;;;;;;;6.17;5.50;;;;;;;;;;5032199;28;20437;-82
2023/10/18 00:29:21;;;;;;;6.90;6.20;;;;;;;;;;5032706;28;20468;-83
2023/10/18 00:31:47;;;;;;;7.17;5.50;;;;;;;;;;5033120;28;21038;-82
2023/10/18 00:34:14;;;;;;;7.67;5.87;;;;;;;;;;5033136;28;20479;-82
2023/10/18 00:36:41;;;;;;;11.37;5.33;;;;;;;;;;5032346;28;20503;-80
2023/10/18 00:39:19;;;;;;;7.10;5.87;;;;;;;;;;5033317;28;20473;-81
2023/10/18 00:41:52;;;;;;;6.00;5.40;;;;;;;;;;5033481;28;20432;-82
2023/10/18 00:44:21;;;;;;;6.87;5.20;;;;;;;;;;5031262;28;20464;-80
2023/10/18 00:46:47;;;;;;;9.50;6.37;;;;;;;;;;5031650;28;20886;-80
2023/10/18 00:49:14;;;;;;;8.83;5.17;;;;;;;;;;5032406;28;20846;-82
2023/10/18 00:51:41;;;;;;;7.00;5.47;;;;;;;;;;5033453;28;20452;-82
2023/10/18 00:54:11;;;;;;;6.23;5.20;;;;;;;;;;5032376;28;20472;-83
2023/10/18 00:56:38;;;;;;;5.47;4.93;;;;;;;;;;5031658;28;20445;-83
2023/10/18 00:59:07;;;;;;;7.93;5.33;;;;;;;;;;5036308;28;20518;-83
2023/10/18 01:01:35;;;;;;;6.53;4.40;;;;;;;;;;5036526;28;20854;-82
2023/10/18 01:04:05;;;;;;;6.63;5.93;;;;;;;;;;5035894;28;20885;-82
2023/10/18 01:06:32;;;;;;;6.30;5.03;;;;;;;;;;5036373;28;20480;-82
2023/10/18 01:08:58;;;;;;;7.80;4.80;;;;;;;;;;5036081;28;20468;-82
2023/10/18 01:11:27;;;;;;;7.63;6.33;;;;;;;;;;5035888;28;20440;-81
2023/10/18 01:13:55;;;;;;;6.90;5.33;;;;;;;;;;5034990;28;20534;-81
2023/10/18 01:16:23;;;;;;;6.13;5.20;;;;;;;;;;5036083;28;20805;-83
2023/10/18 01:18:51;;;;;;;6.37;5.13;;;;;;;;;;5035782;28;20444;-82
2023/10/18 01:21:19;;;;;;;5.80;5.20;;;;;;;;;;5036332;28;20437;-80
2023/10/18 01:23:49;;;;;;;8.60;6.00;;;;;;;;;;5035731;28;20879;-82
2023/10/18 01:26:17;;;;;;;7.80;5.50;;;;;;;;;;5036155;28;20436;-82
2023/10/18 01:28:44;;;;;;;5.03;4.53;;;;;;;;;;5018108;28;20567;-82
2023/10/18 01:31:12;;;;;;;5.30;4.70;;;;;;;;;;5035695;28;20475;-83
2023/10/18 01:33:43;;;;;;;8.40;5.20;;;;;;;;;;5035401;28;20554;-82
2023/10/18 01:36:12;;;;;;;5.70;4.47;;;;;;;;;;5040140;28;20452;-81
2023/10/18 01:38:42;;;;;;;17.63;6.93;;;;;;;;;;5035587;28;20467;-84
2023/10/18 01:41:12;;;;;;;5.63;5.07;;;;;;;;;;5034391;28;20456;-82
2023/10/18 01:43:43;;;;;;;9.07;5.60;;;;;;;;;;5034406;28;20461;-83
2023/10/18 01:46:13;;;;;;;6.43;5.20;;;;;;;;;;5036053;28;20431;-82
2023/10/18 01:48:39;;;;;;;7.23;5.40;;;;;;;;;;5035317;28;20447;-83
2023/10/18 01:51:06;;;;;;;5.57;4.43;;;;;;;;;;5035304;28;20840;-81
2023/10/18 01:53:33;;;;;;;7.80;5.33;;;;;;;;;;5035333;28;20484;-82
2023/10/18 01:56:01;;;;;;;6.43;5.40;;;;;;;;;;5035215;28;20465;-82
2023/10/18 01:58:30;;;;;;;7.93;5.30;;;;;;;;;;5017744;28;20946;-82
2023/10/18 02:00:58;;;;;;;5.00;4.53;;;;;;;;;;5034020;28;20815;-83
2023/10/18 02:03:25;;;;;;;6.87;5.00;;;;;;;;;;5034955;28;20440;-83
2023/10/18 02:05:51;;;;;;;7.50;4.57;;;;;;;;;;5034969;28;20808;-82
2023/10/18 02:08:18;;;;;;;7.30;5.13;;;;;;;;;;5034055;28;20448;-83
2023/10/18 02:10:45;;;;;;;7.93;5.53;;;;;;;;;;5034454;28;20476;-80
2023/10/18 02:13:13;;;;;;;6.10;4.97;;;;;;;;;;5034549;28;20444;-81
2023/10/18 02:15:40;;;;;;;6.53;5.13;;;;;;;;;;5034258;28;20905;-81
2023/10/18 02:18:10;;;;;;;6.90;5.47;;;;;;;;;;5034848;28;20942;-81
2023/10/18 02:20:37;;;;;;;6.17;5.57;;;;;;;;;;5034434;28;20834;-81
2023/10/18 02:23:07;;;;;;;10.83;5.47;;;;;;;;;;5034029;28;20448;-81
2023/10/18 02:25:45;;;;;;;5.10;4.60;;;;;;;;;;5033513;28;20522;-83
2023/10/18 02:28:23;;;;;;;4.60;4.20;;;;;;;;;;5034989;28;20436;-82
2023/10/18 02:30:55;;;;;;;8.33;5.00;;;;;;;;;;5034576;28;20876;-83
2023/10/18 02:33:23;;;;;;;6.17;5.67;;;;;;;;;;5033338;28;20453;-82
2023/10/18 02:35:49;;;;;;;5.10;4.60;;;;;;;;;;5033930;28;20491;-83
2023/10/18 02:38:18;;;;;;;7.37;4.67;;;;;;;;;;5034997;28;20830;-82
2023/10/18 02:40:45;;;;;;;8.30;5.57;;;;;;;;;;5034016;28;20896;-82
2023/10/18 02:43:14;;;;;;;5.80;4.93;;;;;;;;;;5034595;28;20445;-82
2023/10/18 02:45:42;;;;;;;5.70;5.07;;;;;;;;;;5032890;28;20893;-82
2023/10/18 02:48:13;;;;;;;9.47;5.40;;;;;;;;;;5034936;28;20444;-82
2023/10/18 02:50:41;;;;;;;8.47;5.57;;;;;;;;;;5033730;28;20515;-82
2023/10/18 02:53:08;;;;;;;6.00;5.33;;;;;;;;;;5034461;28;20444;-82
2023/10/18 02:55:38;;;;;;;6.80;5.80;;;;;;;;;;5033900;28;20468;-82
2023/10/18 02:58:06;;;;;;;6.90;5.90;;;;;;;;;;5033373;28;20445;-82
2023/10/18 03:00:34;;;;;;;12.77;6.20;;;;;;;;;;5034257;28;20480;-82
2023/10/18 03:03:01;;;;;;;12.50;5.27;;;;;;;;;;5034546;28;20499;-82
2023/10/18 03:05:28;;;;;;;6.63;5.30;;;;;;;;;;5033610;28;20830;-82
2023/10/18 03:07:56;;;;;;;6.60;5.43;;;;;;;;;;5034277;28;20451;-81
2023/10/18 03:10:27;;;;;;;8.87;6.67;;;;;;;;;;5033669;28;20480;-82
2023/10/18 03:12:53;;;;;;;9.07;6.60;;;;;;;;;;5034156;28;20432;-82
2023/10/18 03:15:23;;;;;;;8.73;7.00;;;;;;;;;;5033316;28;20559;-82
2023/10/18 03:17:49;;;;;;;10.50;6.30;;;;;;;;;;5034347;28;20449;-82
2023/10/18 03:20:21;;;;;;;7.20;5.93;;;;;;;;;;5033057;28;21002;-82
2023/10/18 03:22:49;;;;;;;9.07;5.73;;;;;;;;;;5034236;28;20421;-82
2023/10/18 03:25:26;;;;;;;10.83;6.57;;;;;;;;;;5033547;28;20936;-82
2023/10/18 03:27:57;;;;;;;8.20;6.13;;;;;;;;;;5034096;28;20508;-82
2023/10/18 03:30:39;;;;;;;9.20;6.80;;;;;;;;;;5033461;28;20484;-82
2023/10/18 03:33:07;;;;;;;7.40;5.90;;;;;;;;;;5033073;28;20433;-82
2023/10/18 03:35:38;;;;;;;9.20;6.50;;;;;;;;;;5032912;28;20479;-82
2023/10/18 03:38:06;;;;;;;10.60;6.20;;;;;;;;;;5033741;28;20961;-83
2023/10/18 03:40:37;;;;;;;8.10;6.33;;;;;;;;;;5033528;28;20538;-82
2023/10/18 03:43:08;;;;;;;9.70;6.60;;;;;;;;;;5033698;28;20460;-82
2023/10/18 03:46:07;;;;;;;8.97;6.53;;;;;;;;;;5033286;28;20476;-82
2023/10/18 03:48:39;;;;;;;10.40;6.97;;;;;;;;;;5033343;28;20962;-81
2023/10/18 03:51:06;;;;;;;8.00;6.40;;;;;;;;;;5033202;28;20875;-82
2023/10/18 03:53:33;;;;;;;8.77;6.10;;;;;;;;;;5032982;28;20817;-82
2023/10/18 03:56:04;;;;;;;7.63;6.00;;;;;;;;;;5033442;28;20448;-82
2023/10/18 03:58:34;;;;;;;9.47;7.33;;;;;;;;;;5033519;28;20911;-81
2023/10/18 04:01:01;;;;;;;9.70;6.43;;;;;;;;;;5033143;28;20833;-82
2023/10/18 04:03:29;;;;;;;7.10;6.27;;;;;;;;;;5032059;28;21053;-82
2023/10/18 04:06:03;;;;;;;9.43;6.37;;;;;;;;;;5032772;28;20475;-82
2023/10/18 04:08:29;;;;;;;7.93;6.43;;;;;;;;;;5033305;28;20449;-82
2023/10/18 04:10:58;;;;;;;9.13;6.50;;;;;;;;;;5032936;28;20477;-82
2023/10/18 04:13:28;;;;;;;9.97;7.73;;;;;;;;;;5033649;28;20443;-82
2023/10/18 04:15:59;;;;;;;11.50;7.47;;;;;;;;;;5033349;28;20484;-82
2023/10/18 04:18:29;;;;;;;8.80;7.23;;;;;;;;;;5032255;28;20421;-84
2023/10/18 04:20:59;;;;;;;18.07;8.50;;;;;;;;;;5032073;28;20476;-83
2023/10/18 04:23:27;;;;;;;12.60;7.60;;;;;;;;;;5033708;28;20441;-82
2023/10/18 04:26:00;;;;;;;8.43;6.60;;;;;;;;;;5032650;28;20503;-82
2023/10/18 04:28:29;;;;;;;11.93;7.93;;;;;;;;;;5033376;28;20479;-83
2023/10/18 04:31:00;;;;;;;10.63;8.20;;;;;;;;;;5031404;28;20497;-83
2023/10/18 04:33:28;;;;;;;10.70;7.50;;;;;;;;;;5036442;28;20417;-83
2023/10/18 04:35:55;;;;;;;15.77;9.10;;;;;;;;;;5036597;28;20477;-82
2023/10/18 04:38:23;;;;;;;8.37;6.97;;;;;;;;;;5037041;28;20444;-82
2023/10/18 04:40:55;;;;;;;12.43;8.57;;;;;;;;;;5036254;28;20477;-83
2023/10/18 04:43:25;;;;;;;10.73;8.10;;;;;;;;;;5036950;28;20461;-83
2023/10/18 04:45:57;;;;;;;9.77;8.00;;;;;;;;;;5036090;28;20492;-83
2023/10/18 04:48:59;;;;;;;11.77;8.80;;;;;;;;;;5036433;28;20437;-82
2023/10/18 04:51:26;;;;;;;13.57;9.40;;;;;;;;;;5035847;28;20479;-83
2023/10/18 04:53:54;;;;;;;12.00;8.90;;;;;;;;;;5035781;28;21045;-83
2023/10/18 04:56:23;;;;;;;9.77;8.10;;;;;;;;;;5035258;28;20437;-82
2023/10/18 04:58:49;;;;;;;13.37;8.90;;;;;;;;;;5035332;28;20454;-82
2023/10/18 05:01:16;;;;;;;9.80;8.10;;;;;;;;;;5035546;28;20783;-82
2023/10/18 05:03:44;;;;;;;14.33;9.50;;;;;;;;;;5037622;28;20504;-82
2023/10/18 05:06:11;;;;;;;12.93;8.13;;;;;;;;;;5055749;28;20448;-82
2023/10/18 05:08:37;;;;;;;15.67;10.03;;;;;;;;;;5055503;28;20451;-83
2023/10/18 05:13:44;;;;;;;12.10;9.70;;;;;;;;;;5055756;28;20443;-83
2023/10/18 05:16:12;;;;;;;11.40;9.10;;;;;;;;;;5056254;28;20475;-82
2023/10/18 05:18:40;;;;;;;12.93;9.40;;;;;;;;;;5055429;28;20439;-83
2023/10/18 05:21:08;;;;;;;15.80;8.80;;;;;;;;;;5056169;28;20436;-83
2023/10/18 05:23:35;;;;;;;13.43;9.57;;;;;;;;;;5055462;28;20546;-83
2023/10/18 05:26:09;;;;;;;13.93;9.13;;;;;;;;;;5038051;28;20579;-83
2023/10/18 05:28:47;;;;;;;11.67;9.53;;;;;;;;;;5055728;28;20518;-83
2023/10/18 05:34:19;;;;;;;12.10;9.40;;;;;;;;;;5055126;28;20456;-83
2023/10/18 05:37:13;;;;;;;12.60;9.60;;;;;;;;;;5056616;28;20507;-82
2023/10/18 05:39:59;;;;;;;15.47;8.83;;;;;;;;;;5055436;28;20476;-82
2023/10/18 05:42:25;;;;;;;14.10;9.40;;;;;;;;;;5055829;28;20427;-83
2023/10/18 05:44:51;;;;;;;13.30;9.67;;;;;;;;;;5055621;28;20463;-84
2023/10/18 05:47:18;;;;;;;16.80;9.80;;;;;;;;;;5055958;28;20296;-82
2023/10/18 05:49:45;;;;;;;15.70;10.43;;;;;;;;;;5054878;28;20472;-81
2023/10/18 05:52:22;;;;;;;13.60;9.43;;;;;;;;;;5054598;28;21026;-84
2023/10/18 05:54:49;;;;;;;13.20;8.47;;;;;;;;;;5054365;28;20562;-83
2023/10/18 05:57:19;;;;;;;12.17;8.73;;;;;;;;;;5055369;28;20498;-82
2023/10/18 05:59:48;;;;;;;12.80;8.80;;;;;;;;;;5055223;28;20468;-80
2023/10/18 06:02:22;;;;;;;12.13;9.10;;;;;;;;;;5055685;28;20479;-83
2023/10/18 06:04:51;;;;;;;11.60;9.23;;;;;;;;;;5055368;28;21064;-82
2023/10/18 06:07:22;;;;;;;14.10;10.40;;;;;;;;;;5055255;28;20436;-80
2023/10/18 06:09:55;;;;;;;13.80;9.80;;;;;;;;;;5055301;28;20476;-83
2023/10/18 06:12:24;;;;;;;16.17;11.27;;;;;;;;;;5055710;28;20420;-83
2023/10/18 06:14:52;;;;;;;15.17;10.80;;;;;;;;;;5055001;28;21013;-84
2023/10/18 06:17:22;;;;;;;15.77;11.13;;;;;;;;;;5055787;28;20550;-82
2023/10/18 06:19:51;;;;;;;14.13;10.20;;;;;;;;;;5054522;28;20989;-82
2023/10/18 06:22:27;;;;;;;12.93;9.50;;;;;;;;;;5055372;28;20489;-83
2023/10/18 06:24:55;;;;;;;20.83;11.93;;;;;;;;;;5054951;28;20468;-81
2023/10/18 06:27:22;;;;;;;14.17;10.80;;;;;;;;;;5054062;28;20479;-84
2023/10/18 06:29:53;;;;;;;17.90;10.23;;;;;;;;;;5054899;28;20468;-83
2023/10/18 06:32:22;;;;;;;16.53;12.90;;;;;;;;;;5053654;28;20444;-82
2023/10/18 06:34:55;;;;;;;13.03;10.37;;;;;;;;;;5054472;28;20562;-83
2023/10/18 06:37:23;;;;;;;17.50;10.70;;;;;;;;;;5055068;28;20452;-81
2023/10/18 06:39:54;;;;;;;17.17;10.43;;;;;;;;;;5054550;28;20476;-82
2023/10/18 06:42:22;;;;;;;13.43;9.60;;;;;;;;;;5055236;28;20759;-83
2023/10/18 06:44:49;;;;;;;18.77;10.97;;;;;;;;;;5053274;28;20478;-82
2023/10/18 06:47:16;;;;;;;13.87;10.17;;;;;;;;;;5054968;28;20447;-82
2023/10/18 06:49:44;;;;;;;19.13;12.13;;;;;;;;;;5053929;28;20989;-83
2023/10/18 06:52:14;;;;;;;15.87;11.57;;;;;;;;;;5055035;28;20417;-83
2023/10/18 06:54:40;;;;;;;16.03;11.63;;;;;;;;;;5053258;28;20526;-82
2023/10/18 06:57:15;;;;;;;16.80;11.27;;;;;;;;;;5054822;28;20439;-82
2023/10/18 06:59:42;;;;;;;15.97;11.50;;;;;;;;;;5054644;28;20473;-83
2023/10/18 07:02:11;;;;;;;16.43;12.13;;;;;;;;;;5054777;28;20431;-83
2023/10/18 07:04:38;;;;;;;22.23;12.50;;;;;;;;;;5054039;28;20468;-82
2023/10/18 07:07:11;;;;;;;17.90;11.73;;;;;;;;;;5054734;28;20507;-81
2023/10/18 07:09:42;;;;;;;18.97;12.47;;;;;;;;;;5052975;28;20482;-81
2023/10/18 07:12:11;;;;;;;16.53;12.70;;;;;;;;;;5052979;28;20450;-82
2023/10/18 07:14:37;;;;;;;22.70;12.60;;;;;;;;;;5053669;28;20563;-81
2023/10/18 07:17:04;;;;;;;20.53;13.60;;;;;;;;;;5054474;28;20436;-82
2023/10/18 07:19:33;;;;;;;16.63;12.40;;;;;;;;;;5052587;28;20521;-81
2023/10/18 07:22:06;;;;;;;15.60;12.10;;;;;;;;;;5054638;28;20447;-81
2023/10/18 07:24:34;;;;;;;17.13;12.80;;;;;;;;;;5053832;28;20476;-81
2023/10/18 07:27:03;;;;;;;16.83;12.90;;;;;;;;;;5054607;28;20530;-82
2023/10/18 07:29:31;;;;;;;20.37;12.53;;;;;;;;;;5054082;28;20479;-81
2023/10/18 07:31:59;;;;;;;20.57;13.77;;;;;;;;;;5054737;28;20443;-81
2023/10/18 07:34:28;;;;;;;21.73;14.87;;;;;;;;;;5052499;28;20521;-82
2023/10/18 07:36:55;;;;;;;19.80;14.03;;;;;;;;;;5053621;28;20480;-81
2023/10/18 07:39:24;;;;;;;17.87;13.17;;;;;;;;;;5053697;28;20464;-82
2023/10/18 07:41:51;;;;;;;16.83;12.83;;;;;;;;;;5050125;28;20471;-81
2023/10/18 07:44:19;;;;;;;20.90;13.47;;;;;;;;;;5054580;28;20509;-82
2023/10/18 07:46:46;;;;;;;19.07;12.87;;;;;;;;;;5053761;28;20475;-81
2023/10/18 07:49:14;;;;;;;21.27;13.00;;;;;;;;;;5052854;28;20447;-81
2023/10/18 07:51:48;;;;;;;21.07;13.80;;;;;;;;;;5052209;28;20845;-82
2023/10/18 07:54:15;;;;;;;20.37;14.00;;;;;;;;;;5053640;28;20470;-81
2023/10/18 07:56:48;;;;;;;20.10;14.20;;;;;;;;;;5053562;28;20502;-81
2023/10/18 08:02:12;;;;;;;20.50;13.27;;;;;;;;;;5051560;28;20461;-81
2023/10/18 08:04:40;;;;;;;18.27;13.87;;;;;;;;;;5054116;28;20546;-81
2023/10/18 08:07:10;;;;;;;17.57;13.73;;;;;;;;;;5058387;28;20471;-83
2023/10/18 08:09:39;;;;;;;20.57;13.57;;;;;;;;;;5059796;28;20513;-81
2023/10/18 08:12:08;;;;;;;18.30;12.60;;;;;;;;;;5058108;28;20466;-80
2023/10/18 08:14:34;;;;;;;16.43;12.37;;;;;;;;;;5058227;28;21052;-81
2023/10/18 08:17:08;;;;;;;17.07;13.17;;;;;;;;;;5057923;28;20476;-84
2023/10/18 08:19:43;;;;;;;16.70;12.93;;;;;;;;;;5058410;28;20514;-81
2023/10/18 08:22:27;;;;;;;19.33;12.97;;;;;;;;;;5058028;28;20985;-82
2023/10/18 08:24:53;;;;;;;20.57;12.83;;;;;;;;;;5057772;28;20590;-82
2023/10/18 08:27:21;;;;;;;18.03;13.17;;;;;;;;;;5056072;28;20476;-83
2023/10/18 08:30:20;;;;;;;17.10;12.43;;;;;;;;;;5057962;28;20490;-80
2023/10/18 08:32:43;;;;;;;17.23;12.63;;;;;;;;;;5057549;28;20981;-82
2023/10/18 08:35:16;;;;;;;15.33;11.80;;;;;;;;;;5057109;28;20908;-82
2023/10/18 08:37:43;;;;;;;16.60;13.13;;;;;;;;;;5057968;28;20427;-82
2023/10/18 08:40:15;;;;;;;15.67;12.33;;;;;;;;;;5057550;28;20550;-83
2023/10/18 08:42:49;;;;;;;15.90;11.53;;;;;;;;;;5057834;28;20416;-82
2023/10/18 08:45:19;;;;;;;16.17;10.77;;;;;;;;;;5056240;28;20459;-82
2023/10/18 08:47:49;;;;;;;17.90;13.33;;;;;;;;;;5059101;28;20459;-83
2023/10/18 08:50:18;;;;;;;13.80;11.50;;;;;;;;;;5055382;28;20831;-83
2023/10/18 08:52:47;;;;;;;13.60;11.00;;;;;;;;;;5057696;28;20443;-82
2023/10/18 08:55:22;;;;;;;21.00;11.63;;;;;;;;;;5055804;28;21008;-83
2023/10/18 08:57:54;;;;;;;17.83;12.67;;;;;;;;;;5057029;28;20489;-83
2023/10/18 09:03:02;;;;;;;18.00;11.80;;;;;;;;;;5058084;28;20808;-83
2023/10/18 09:05:29;;;;;;;15.00;12.77;;;;;;;;;;5057415;28;20463;-82
2023/10/18 09:08:00;;;;;;;17.20;10.87;;;;;;;;;;5058424;28;20444;-82
2023/10/18 09:10:33;;;;;;;12.90;11.50;;;;;;;;;;5057165;28;20497;-83
2023/10/18 09:16:01;;;;;;;14.53;11.73;;;;;;;;;;5035543;28;20469;-80
2023/10/18 09:18:30;;;;;;;13.50;10.20;;;;;;;;;;5052255;28;20493;-83
2023/10/18 09:21:04;;;;;;;15.00;10.57;;;;;;;;;;5057658;28;20499;-80
2023/10/18 09:23:31;;;;;;;18.57;10.90;;;;;;;;;;5058348;28;20992;-82
2023/10/18 09:26:06;;;;;;;14.70;11.23;;;;;;;;;;5058016;28;20494;-81
2023/10/18 09:28:35;;;;;;;11.80;10.60;;;;;;;;;;5058609;28;20920;-82
2023/10/18 09:31:09;;;;;;;13.27;10.80;;;;;;;;;;5057497;28;20541;-83
2023/10/18 09:33:36;;;;;;;13.33;10.70;;;;;;;;;;5056779;28;20467;-82
2023/10/18 09:36:18;;;;;;;16.00;10.37;;;;;;;;;;5057653;28;20484;-83
2023/10/18 09:38:44;;;;;;;11.10;9.90;;;;;;;;;;5057217;28;20493;-82
2023/10/18 09:41:11;;;;;;;12.53;10.60;;;;;;;;;;5057428;28;20889;-82
2023/10/18 09:43:37;;;;;;;11.27;9.60;;;;;;;;;;5057372;28;20509;-82
2023/10/18 09:46:04;;;;;;;12.67;10.77;;;;;;;;;;5057355;28;20467;-81
2023/10/18 09:48:32;;;;;;;14.67;10.23;;;;;;;;;;5056973;28;20852;-81
2023/10/18 09:51:06;;;;;;;11.10;9.57;;;;;;;;;;5056670;28;20478;-82
2023/10/18 09:53:34;;;;;;;12.97;9.63;;;;;;;;;;5057231;28;20480;-82
2023/10/18 09:56:02;;;;;;;15.83;8.70;;;;;;;;;;5056392;28;20472;-81
2023/10/18 09:58:29;;;;;;;12.27;9.53;;;;;;;;;;5056235;28;20457;-81
2023/10/18 10:01:01;;;;;;;11.13;9.57;;;;;;;;;;5056817;28;20475;-81
2023/10/18 10:03:30;;;;;;;14.60;9.97;;;;;;;;;;5055645;28;20455;-81
2023/10/18 10:05:57;;;;;;;13.40;11.47;;;;;;;;;;5055819;28;20498;-81
2023/10/18 10:08:23;;;;;;;15.80;9.70;;;;;;;;;;5038712;28;20452;-81
2023/10/18 10:11:03;;;;;;;11.00;9.27;;;;;;;;;;5056165;28;20468;-81
2023/10/18 10:13:32;;;;;;;11.63;8.93;;;;;;;;;;5056684;28;20466;-81
2023/10/18 10:16:02;;;;;;;9.83;8.13;;;;;;;;;;5054768;28;20472;-81
2023/10/18 10:18:30;;;;;;;15.37;8.73;;;;;;;;;;5054902;28;20420;-81
2023/10/18 10:20:58;;;;;;;11.97;9.93;;;;;;;;;;5055247;28;20476;-81
2023/10/18 10:23:25;;;;;;;25.17;9.90;;;;;;;;;;5055715;28;20440;-81
2023/10/18 10:26:11;;;;;;;11.80;9.80;;;;;;;;;;5055425;28;20472;-81
2023/10/18 10:31:48;;;;;;;15.20;8.80;;;;;;;;;;5054643;28;21047;-81
2023/10/18 10:34:19;;;;;;;10.33;8.87;;;;;;;;;;5055027;28;20525;-81
2023/10/18 10:36:47;;;;;;;12.60;9.23;;;;;;;;;;5054735;28;20479;-81
2023/10/18 10:39:23;;;;;;;11.53;8.50;;;;;;;;;;5055486;28;20439;-81
2023/10/18 10:41:51;;;;;;;11.93;9.60;;;;;;;;;;5052309;28;20879;-82
2023/10/18 10:44:22;;;;;;;15.50;10.43;;;;;;;;;;5055039;28;20837;-81
2023/10/18 10:46:50;;;;;;;10.83;9.73;;;;;;;;;;5053202;28;20468;-82
2023/10/18 10:49:47;;;;;;;11.07;9.90;;;;;;;;;;5054951;28;20440;-81
2023/10/18 10:52:18;;;;;;;9.63;8.83;;;;;;;;;;5056321;28;20483;-81
2023/10/18 10:54:51;;;;;;;15.13;10.30;;;;;;;;;;5055594;28;20460;-80
2023/10/18 10:57:19;;;;;;;12.90;10.07;;;;;;;;;;5055587;28;20499;-81
2023/10/18 10:59:55;;;;;;;11.70;10.27;;;;;;;;;;5055776;28;20443;-82
2023/10/18 11:02:24;;;;;;;11.67;9.40;;;;;;;;;;5056932;28;20467;-81
2023/10/18 11:04:51;;;;;;;17.60;10.17;;;;;;;;;;5054749;28;20550;-81
2023/10/18 11:07:22;;;;;;;11.90;9.80;;;;;;;;;;5053960;28;20509;-82
2023/10/18 11:09:50;;;;;;;11.20;9.63;;;;;;;;;;5053662;28;20440;-82
2023/10/18 11:12:17;;;;;;;10.70;9.60;;;;;;;;;;5054594;28;20551;-81
2023/10/18 11:14:50;;;;;;;17.10;10.23;;;;;;;;;;5055010;28;20464;-82
2023/10/18 11:17:18;;;;;;;14.20;9.83;;;;;;;;;;5054291;28;20472;-82
2023/10/18 11:19:51;;;;;;;10.13;8.93;;;;;;;;;;5054682;28;20527;-82
2023/10/18 11:22:19;;;;;;;11.17;10.07;;;;;;;;;;5053940;28;20521;-80
2023/10/18 11:24:49;;;;;;;11.97;10.70;;;;;;;;;;5053671;28;20472;-81
2023/10/18 11:27:17;;;;;;;11.50;10.30;;;;;;;;;;5053848;28;20472;-82
2023/10/18 11:29:46;;;;;;;13.83;10.60;;;;;;;;;;5053492;28;20447;-81
2023/10/18 11:32:18;;;;;;;12.73;9.77;;;;;;;;;;5053659;28;20496;-83
2023/10/18 11:34:46;;;;;;;15.57;9.73;;;;;;;;;;5054649;28;20502;-82
2023/10/18 11:37:26;;;;;;;10.57;8.93;;;;;;;;;;5054763;28;20472;-82
2023/10/18 11:39:55;;;;;;;12.57;9.70;;;;;;;;;;5054215;28;20884;-82
2023/10/18 11:42:21;;;;;;;10.60;9.50;;;;;;;;;;5053556;28;20889;-81
2023/10/18 11:44:53;;;;;;;11.23;8.60;;;;;;;;;;5053966;28;20463;-83
2023/10/18 11:47:19;;;;;;;9.70;8.60;;;;;;;;;;5052956;28;20464;-81
2023/10/18 11:49:47;;;;;;;11.77;9.80;;;;;;;;;;5052582;28;20444;-81
2023/10/18 11:52:17;;;;;;;11.30;9.70;;;;;;;;;;5053855;28;20475;-81
2023/10/18 11:54:44;;;;;;;12.80;8.90;;;;;;;;;;5053743;28;20467;-81
2023/10/18 11:57:25;;;;;;;10.50;9.40;;;;;;;;;;5053231;28;20533;-82
2023/10/18 11:59:54;;;;;;;10.90;9.80;;;;;;;;;;5054549;28;20416;-82
2023/10/18 12:02:21;;;;;;;9.47;8.50;;;;;;;;;;5052006;28;20502;-82
2023/10/18 12:04:48;;;;;;;11.90;9.83;;;;;;;;;;5053911;28;20460;-82
2023/10/18 12:07:14;;;;;;;10.87;8.57;;;;;;;;;;5052435;28;20471;-82
2023/10/18 12:09:44;;;;;;;9.57;8.57;;;;;;;;;;5052731;28;20451;-81
2023/10/18 12:12:13;;;;;;;13.07;9.67;;;;;;;;;;5051925;28;20510;-82
2023/10/18 12:14:41;;;;;;;10.67;8.90;;;;;;;;;;5053618;28;20463;-82
2023/10/18 12:17:09;;;;;;;11.40;8.77;;;;;;;;;;5053323;28;20602;-82
2023/10/18 12:19:36;;;;;;;9.83;8.27;;;;;;;;;;5052411;28;20498;-81
2023/10/18 12:22:04;;;;;;;12.10;8.10;;;;;;;;;;5051973;28;20573;-81
2023/10/18 12:24:33;;;;;;;10.93;8.50;;;;;;;;;;5053773;28;20468;-81
2023/10/18 12:27:15;;;;;;;9.40;8.40;;;;;;;;;;5052404;28;20464;-81
2023/10/18 12:29:43;;;;;;;11.07;9.63;;;;;;;;;;5053147;28;20439;-81
2023/10/18 12:32:22;;;;;;;11.93;8.87;;;;;;;;;;5051884;28;20534;-81
2023/10/18 12:34:56;;;;;;;9.77;8.70;;;;;;;;;;5054682;28;20895;-81
2023/10/18 12:37:22;;;;;;;9.90;8.50;;;;;;;;;;5054061;28;20507;-81
2023/10/18 12:39:49;;;;;;;11.00;8.60;;;;;;;;;;5054808;28;20436;-82
2023/10/18 12:42:19;;;;;;;13.63;9.17;;;;;;;;;;5053925;28;20478;-82
2023/10/18 12:44:46;;;;;;;10.57;9.20;;;;;;;;;;5054106;28;20462;-81
2023/10/18 12:47:19;;;;;;;10.93;9.30;;;;;;;;;;5053537;28;20472;-81
2023/10/18 12:49:45;;;;;;;11.97;9.17;;;;;;;;;;5054139;28;20452;-81
2023/10/18 12:54:53;;;;;;;9.73;8.37;;;;;;;;;;5057560;28;20447;-81
2023/10/18 12:57:20;;;;;;;10.90;8.77;;;;;;;;;;5056217;28;20868;-81
2023/10/18 12:59:59;;;;;;;17.67;9.60;;;;;;;;;;5055759;28;20448;-81
2023/10/18 13:05:40;;;;;;;12.43;8.77;;;;;;;;;;5109864;27;20579;-80
2023/10/18 13:08:15;;;;;;;11.33;9.20;;;;;;;;;;5091784;28;20446;-80
2023/10/18 13:10:43;;;;;;;10.03;8.60;;;;;;;;;;5091425;28;20496;-80
2023/10/18 13:13:16;;;;;;;11.87;8.70;;;;;;;;;;5091570;28;20442;-80
2023/10/18 13:15:43;;;;;;;15.87;8.27;;;;;;;;;;5090873;28;20454;-81
2023/10/18 13:18:11;;;;;;;11.13;9.00;;;;;;;;;;5091465;28;20446;-80
2023/10/18 13:20:43;;;;;;;12.40;8.90;;;;;;;;;;5091644;28;20464;-83
2023/10/18 13:23:09;;;;;;;9.17;8.20;;;;;;;;;;5093341;28;20431;-81
2023/10/18 13:25:38;;;;;;;10.53;8.20;;;;;;;;;;5090577;28;20469;-81
2023/10/18 13:28:05;;;;;;;10.57;8.83;;;;;;;;;;5091369;28;20940;-82
2023/10/18 13:30:43;;;;;;;8.27;7.33;;;;;;;;;;5090702;28;20462;-83
2023/10/18 13:33:12;;;;;;;12.17;8.53;;;;;;;;;;5090813;28;20539;-82
2023/10/18 13:35:40;;;;;;;10.67;8.60;;;;;;;;;;5090630;28;20500;-82
2023/10/18 13:38:06;;;;;;;8.63;7.70;;;;;;;;;;5090883;28;20840;-82
2023/10/18 13:40:36;;;;;;;13.80;8.73;;;;;;;;;;5091478;28;20460;-82
2023/10/18 13:43:03;;;;;;;13.30;8.33;;;;;;;;;;5090947;28;20893;-80
2023/10/18 13:45:29;;;;;;;10.53;8.60;;;;;;;;;;5088770;28;20958;-80
2023/10/18 13:47:58;;;;;;;14.50;8.80;;;;;;;;;;5090721;28;20446;-80
2023/10/18 13:50:26;;;;;;;10.07;8.33;;;;;;;;;;5088757;28;20474;-80
2023/10/18 13:52:55;;;;;;;11.33;8.70;;;;;;;;;;5090047;28;20417;-81
2023/10/18 13:55:22;;;;;;;16.33;8.60;;;;;;;;;;5090291;28;20950;-80
2023/10/18 13:57:50;;;;;;;12.73;9.90;;;;;;;;;;5090520;28;20450;-81
2023/10/18 14:00:21;;;;;;;10.83;8.80;;;;;;;;;;5090248;28;20456;-80
2023/10/18 14:02:47;;;;;;;8.00;7.30;;;;;;;;;;5090947;28;20426;-80
2023/10/18 14:05:14;;;;;;;9.83;8.80;;;;;;;;;;5088367;28;20482;-81
2023/10/18 14:07:41;;;;;;;14.80;8.27;;;;;;;;;;5089120;28;20435;-80
2023/10/18 14:10:19;;;;;;;10.17;8.27;;;;;;;;;;5088684;28;20538;-80
2023/10/18 14:12:45;;;;;;;9.73;8.67;;;;;;;;;;5090048;28;20513;-81
2023/10/18 14:15:16;;;;;;;10.87;7.53;;;;;;;;;;5084600;28;20549;-80
2023/10/18 14:17:42;;;;;;;10.83;8.03;;;;;;;;;;5059898;28;20936;-80
2023/10/18 14:20:11;;;;;;;7.70;7.00;;;;;;;;;;5076345;28;20454;-80
2023/10/18 14:22:38;;;;;;;11.10;8.10;;;;;;;;;;5076998;28;20451;-82
2023/10/18 14:25:04;;;;;;;8.33;7.40;;;;;;;;;;5076410;28;20508;-81
2023/10/18 14:27:32;;;;;;;12.57;8.33;;;;;;;;;;5076181;28;20463;-80
2023/10/18 14:30:00;;;;;;;8.53;7.33;;;;;;;;;;5076317;28;20418;-80
2023/10/18 14:32:26;;;;;;;9.57;8.53;;;;;;;;;;5074224;28;20493;-80
2023/10/18 14:34:54;;;;;;;10.80;8.33;;;;;;;;;;5075619;28;20459;-80
2023/10/18 14:37:22;;;;;;;8.33;7.50;;;;;;;;;;5076111;28;20549;-81
2023/10/18 14:39:48;;;;;;;8.13;7.43;;;;;;;;;;5075992;28;21000;-80
2023/10/18 14:42:14;;;;;;;9.90;7.37;;;;;;;;;;5077429;28;20446;-80
2023/10/18 14:44:42;;;;;;;10.47;7.47;;;;;;;;;;5076030;28;20482;-80
2023/10/18 14:47:11;;;;;;;8.33;7.53;;;;;;;;;;5074163;28;20826;-80
2023/10/18 14:49:39;;;;;;;8.57;7.43;;;;;;;;;;5076132;28;20439;-81
2023/10/18 14:52:10;;;;;;;9.10;7.00;;;;;;;;;;5074238;28;20441;-80
2023/10/18 14:54:41;;;;;;;9.27;8.07;;;;;;;;;;5076000;28;20521;-80
2023/10/18 14:57:07;;;;;;;11.83;8.30;;;;;;;;;;5075390;28;20462;-81
2023/10/18 14:59:34;;;;;;;8.83;7.93;;;;;;;;;;5076091;28;20435;-82
2023/10/18 15:02:01;;;;;;;8.20;7.43;;;;;;;;;;5074495;28;20870;-80
2023/10/18 15:04:28;;;;;;;8.00;6.93;;;;;;;;;;5073913;28;20552;-80
2023/10/18 15:06:54;;;;;;;8.40;7.53;;;;;;;;;;5075159;28;20470;-81
2023/10/18 15:09:21;;;;;;;11.03;7.30;;;;;;;;;;5074180;28;20534;-81